createdAt,value
2023-10-10T00:00:15.803Z,4.60
2023-10-10T00:10:17.108Z,4.90
2023-10-10T00:20:18.546Z,4.78
2023-10-10T00:30:19.995Z,5.10
2023-10-10T00:40:21.489Z,5.05
2023-10-10T00:50:22.797Z,4.97
2023-10-10T01:00:24.087Z,5.15
2023-10-10T01:10:25.431Z,4.90
2023-10-10T01:20:26.917Z,4.43
2023-10-10T01:30:28.264Z,4.70
2023-10-10T01:40:29.550Z,5.13
2023-10-10T01:50:30.945Z,5.07
2023-10-10T02:00:32.329Z,5.10
2023-10-10T02:10:33.603Z,5.05
2023-10-10T02:20:35.287Z,4.88
2023-10-10T02:30:37.185Z,5.35
2023-10-10T02:40:38.672Z,4.78
2023-10-10T02:50:40.025Z,5.22
2023-10-10T03:00:41.382Z,4.57
2023-10-10T03:10:42.704Z,5.03
2023-10-10T03:20:43.981Z,4.70
2023-10-10T03:30:45.258Z,5.13
2023-10-10T03:40:47.200Z,5.10
2023-10-10T03:50:48.579Z,5.60
2023-10-10T04:00:49.901Z,5.82
2023-10-10T04:10:51.208Z,5.93
2023-10-10T04:20:52.557Z,5.60
2023-10-10T04:30:53.887Z,5.18
2023-10-10T04:40:55.225Z,5.57
2023-10-10T04:50:56.494Z,6.28
2023-10-10T05:00:57.798Z,5.22
2023-10-10T05:10:59.064Z,5.65
2023-10-10T05:21:00.376Z,5.88
2023-10-10T05:31:01.741Z,5.28
2023-10-10T05:41:03.111Z,4.90
2023-10-10T05:51:04.418Z,5.07
2023-10-10T06:01:05.771Z,5.20
2023-10-10T06:11:07.221Z,4.45
2023-10-10T06:21:09.933Z,4.53
2023-10-10T06:31:12.092Z,4.50
2023-10-10T06:41:13.470Z,4.40
2023-10-10T06:51:14.809Z,4.53
2023-10-10T07:01:16.152Z,4.20
2023-10-10T07:11:17.521Z,4.10
2023-10-10T07:21:18.857Z,4.70
2023-10-10T07:31:20.263Z,3.90
2023-10-10T07:41:21.637Z,4.38
2023-10-10T07:51:22.967Z,4.70
2023-10-10T08:01:24.329Z,4.85
2023-10-10T08:11:25.662Z,4.95
2023-10-10T08:21:27.028Z,4.22
2023-10-10T08:31:28.370Z,4.32
2023-10-10T08:41:29.802Z,3.88
2023-10-10T08:51:31.112Z,4.18
2023-10-10T09:01:32.452Z,4.05
2023-10-10T09:11:35.311Z,4.18
2023-10-10T09:21:36.857Z,4.22
2023-10-10T09:31:40.145Z,4.00
2023-10-10T09:41:42.804Z,3.30
2023-10-10T09:51:44.123Z,3.70
2023-10-10T10:01:45.434Z,3.30
2023-10-10T10:11:50.033Z,3.45
2023-10-10T10:21:51.555Z,3.75
2023-10-10T10:31:53.470Z,3.47
2023-10-10T10:41:55.001Z,3.50
2023-10-10T10:51:56.512Z,3.60
2023-10-10T11:01:57.832Z,3.70
2023-10-10T11:11:59.199Z,3.40
2023-10-10T11:22:00.479Z,3.40
2023-10-10T11:32:01.782Z,3.50
2023-10-10T11:42:03.135Z,3.63
2023-10-10T11:52:05.306Z,3.33
2023-10-10T12:02:06.822Z,3.30
2023-10-10T12:12:08.479Z,3.60
2023-10-10T12:22:09.804Z,3.47
2023-10-10T12:32:11.081Z,3.67
2023-10-10T12:42:12.370Z,3.55
2023-10-10T12:52:13.869Z,3.50
2023-10-10T13:02:15.417Z,3.63
2023-10-10T13:12:16.749Z,3.70
2023-10-10T13:22:18.038Z,3.35
2023-10-10T13:32:21.463Z,3.67
2023-10-10T13:42:30.357Z,3.60
2023-10-10T13:52:38.823Z,3.58
2023-10-10T14:02:48.361Z,3.38
2023-10-10T14:13:03.487Z,3.60
2023-10-10T14:23:11.540Z,3.45
2023-10-10T14:33:12.994Z,3.47
2023-10-10T14:43:18.357Z,3.63
2023-10-10T14:53:27.623Z,3.20
2023-10-10T15:03:39.250Z,3.40
2023-10-10T15:13:43.323Z,3.28
2023-10-10T15:23:52.373Z,3.28
2023-10-10T15:34:01.439Z,3.55
2023-10-10T15:44:09.334Z,3.58
2023-10-10T15:54:19.603Z,3.60
2023-10-10T16:04:27.392Z,2.58
2023-10-10T16:14:36.418Z,3.38
2023-10-10T16:24:41.408Z,3.55
2023-10-10T16:34:49.329Z,3.28
2023-10-10T16:55:19.290Z,3.53
2023-10-10T17:05:20.562Z,3.42
2023-10-10T17:15:21.887Z,3.40
2023-10-10T17:25:23.174Z,3.38
2023-10-10T17:35:24.455Z,3.17
2023-10-10T17:45:25.741Z,3.45
2023-10-10T17:55:27.052Z,3.20
2023-10-10T18:05:28.383Z,3.28
2023-10-10T18:15:29.748Z,3.35
2023-10-10T18:25:31.069Z,3.10
2023-10-10T18:35:32.411Z,3.30
2023-10-10T18:45:33.711Z,3.40
2023-10-10T18:55:34.975Z,2.88
2023-10-10T19:15:53.652Z,3.25
2023-10-10T20:28:18.650Z,3.13
2023-10-10T20:38:20.235Z,2.88
2023-10-10T20:58:50.626Z,3.65
2023-10-10T21:08:52.003Z,3.60
2023-10-10T21:18:53.597Z,3.10
2023-10-10T21:28:55.039Z,3.17
2023-10-10T21:38:56.345Z,3.75
2023-10-10T21:48:57.652Z,3.30
2023-10-10T21:59:01.826Z,3.15
2023-10-10T22:09:03.171Z,3.15
2023-10-10T22:19:04.650Z,3.50
2023-10-10T22:29:06.044Z,3.55
2023-10-10T22:39:07.389Z,3.38
2023-10-10T22:49:08.692Z,3.10
2023-10-10T22:59:09.996Z,3.50
2023-10-10T23:09:11.391Z,3.08
2023-10-10T23:19:12.846Z,3.50
2023-10-10T23:29:14.158Z,2.80
2023-10-10T23:39:15.684Z,3.30
2023-10-10T23:49:17.286Z,3.47
2023-10-10T23:59:18.644Z,3.42
